Terminal Aerodrome Forecast
Issued by NWS

Home | Current Version | Previous Version | Text Only | Print | Product List | Glossary On
Versions: 1 2 3 4 5 6 7 8 9 10 11 12 13
322
FTUS41 KPHI 261126
TAFMIV
TAF
KMIV 261126Z 2612/2712 00000KT P6SM FEW250
     FM261400 22006KT P6SM SCT250
     FM261900 19007KT P6SM SCT250
     FM270400 00000KT P6SM BKN100=

USA.gov is the U.S. government's official web portal to all federal, state and local government web resources and services.